createdAt,value
2022-10-11T00:02:05.550Z,32.20
2022-10-11T00:04:44.046Z,32.00
2022-10-11T00:07:15.468Z,34.10
2022-10-11T00:09:42.251Z,25.40
2022-10-11T00:12:15.800Z,30.10
2022-10-11T00:14:45.262Z,31.70
2022-10-11T00:17:11.847Z,27.80
2022-10-11T00:19:38.574Z,30.10
2022-10-11T00:22:05.671Z,29.10
2022-10-11T00:24:33.542Z,26.90
2022-10-11T00:27:04.260Z,27.00
2022-10-11T00:29:49.534Z,29.50
2022-10-11T00:32:35.266Z,29.30
2022-10-11T00:35:06.343Z,29.30
2022-10-11T00:37:58.842Z,27.00
2022-10-11T00:40:37.959Z,26.10
2022-10-11T00:43:17.118Z,36.50
2022-10-11T00:45:58.692Z,28.20
2022-10-11T00:49:18.386Z,26.40
2022-10-11T00:53:15.575Z,27.80
2022-10-11T00:55:56.723Z,32.90
2022-10-11T00:58:28.209Z,30.60
2022-10-11T01:01:12.108Z,28.30
2022-10-11T01:04:02.354Z,30.10
2022-10-11T01:06:36.985Z,28.90
2022-10-11T01:09:06.654Z,32.90
2022-10-11T01:11:37.618Z,28.70
2022-10-11T01:14:23.583Z,32.40
2022-10-11T01:17:22.358Z,30.80
2022-10-11T01:20:17.330Z,28.00
2022-10-11T01:22:52.815Z,29.00
2022-10-11T01:25:36.654Z,28.40
2022-10-11T01:28:21.929Z,27.70
2022-10-11T01:30:50.610Z,31.00
2022-10-11T01:33:26.180Z,31.20
2022-10-11T01:36:05.139Z,29.30
2022-10-11T01:38:38.581Z,27.60
2022-10-11T01:41:26.839Z,26.90
2022-10-11T01:43:59.043Z,24.30
2022-10-11T01:46:28.214Z,31.70
2022-10-11T01:48:58.362Z,24.70
2022-10-11T01:51:33.990Z,26.50
2022-10-11T01:54:15.663Z,31.70
2022-10-11T01:57:17.826Z,28.20
2022-10-11T01:59:59.997Z,24.80
2022-10-11T02:03:13.816Z,27.70
2022-10-11T02:06:04.234Z,28.30
2022-10-11T02:08:46.677Z,22.90
2022-10-11T02:11:22.274Z,29.20
2022-10-11T02:14:14.176Z,27.90
2022-10-11T02:16:45.754Z,30.10
2022-10-11T02:19:24.463Z,25.00
2022-10-11T02:22:04.047Z,26.30
2022-10-11T02:24:35.518Z,22.20
2022-10-11T02:27:04.761Z,21.90
2022-10-11T02:29:38.348Z,23.30
2022-10-11T02:32:07.830Z,23.60
2022-10-11T02:34:46.953Z,23.90
2022-10-11T02:37:19.038Z,25.90
2022-10-11T02:40:11.305Z,26.00
2022-10-11T02:42:50.837Z,23.90
2022-10-11T02:45:38.404Z,33.30
2022-10-11T02:48:07.011Z,26.10
2022-10-11T02:50:33.649Z,28.00
2022-10-11T02:53:03.879Z,24.20
2022-10-11T02:55:37.822Z,26.50
2022-10-11T02:58:04.523Z,23.30
2022-10-11T03:00:31.467Z,25.80
2022-10-11T03:02:58.412Z,21.20
2022-10-11T03:05:25.398Z,26.10
2022-10-11T03:08:17.506Z,25.90
2022-10-11T03:10:44.685Z,23.20
2022-10-11T03:13:23.350Z,31.30
2022-10-11T03:16:07.268Z,27.00
2022-10-11T03:22:01.174Z,25.30
2022-10-11T03:24:31.863Z,24.80
2022-10-11T03:27:00.709Z,23.20
2022-10-11T03:29:27.303Z,21.30
2022-10-11T03:31:55.059Z,25.10
2022-10-11T03:34:21.647Z,22.40
2022-10-11T03:36:48.248Z,24.00
2022-10-11T03:39:32.233Z,24.90
2022-10-11T03:42:22.185Z,22.90
2022-10-11T03:44:51.254Z,25.70
2022-10-11T03:47:18.116Z,25.40
2022-10-11T03:49:45.065Z,25.60
2022-10-11T03:52:18.988Z,22.10
2022-10-11T03:54:52.981Z,25.40
2022-10-11T03:57:19.845Z,23.70
2022-10-11T03:59:47.661Z,23.50
2022-10-11T04:02:24.217Z,24.40
2022-10-11T04:05:01.421Z,20.90
2022-10-11T04:07:30.214Z,18.80
2022-10-11T04:10:05.311Z,21.80
2022-10-11T04:12:34.402Z,19.10
2022-10-11T04:15:07.738Z,27.00
2022-10-11T04:17:46.497Z,23.00
2022-10-11T04:20:22.140Z,21.50
2022-10-11T04:22:49.291Z,21.30
2022-10-11T04:25:16.227Z,22.30
2022-10-11T04:27:42.844Z,26.00
2022-10-11T04:30:10.597Z,22.30
2022-10-11T04:32:37.190Z,22.40
2022-10-11T04:35:04.900Z,21.70
2022-10-11T04:37:36.495Z,26.40
2022-10-11T04:40:17.201Z,23.20
2022-10-11T04:42:44.253Z,26.10
2022-10-11T04:45:11.634Z,19.50
2022-10-11T04:48:02.058Z,23.50
2022-10-11T04:50:48.023Z,20.70
2022-10-11T04:53:28.163Z,28.20
2022-10-11T04:56:02.134Z,27.60
2022-10-11T04:58:40.493Z,18.40
2022-10-11T05:01:08.793Z,23.00
2022-10-11T05:03:36.212Z,23.80
2022-10-11T05:06:05.869Z,25.20
2022-10-11T05:08:50.657Z,23.00
2022-10-11T05:11:18.191Z,23.80
2022-10-11T05:13:52.758Z,23.60
2022-10-11T05:16:19.576Z,27.90
2022-10-11T05:18:46.177Z,24.80
2022-10-11T05:21:18.744Z,24.10
2022-10-11T05:23:49.853Z,28.30
2022-10-11T05:26:30.797Z,24.60
2022-10-11T05:28:57.773Z,20.40
2022-10-11T05:31:24.729Z,27.30
2022-10-11T05:33:56.314Z,26.80
2022-10-11T05:36:23.356Z,24.40
2022-10-11T05:39:12.367Z,23.10
2022-10-11T05:42:14.296Z,26.30
2022-10-11T05:44:48.247Z,25.00
2022-10-11T05:47:15.434Z,26.30
2022-10-11T05:50:22.015Z,24.90
2022-10-11T05:52:54.251Z,28.00
2022-10-11T05:55:50.754Z,27.70
2022-10-11T05:58:58.694Z,27.60
2022-10-11T06:02:52.272Z,28.00
2022-10-11T06:06:10.720Z,22.90
2022-10-11T06:08:54.639Z,23.80
2022-10-11T06:11:26.794Z,24.00
2022-10-11T06:13:58.327Z,21.90
2022-10-11T06:16:29.410Z,26.50
2022-10-11T06:18:58.932Z,31.00
2022-10-11T06:21:25.770Z,26.00
2022-10-11T06:23:56.870Z,25.90
2022-10-11T06:27:01.954Z,26.10
2022-10-11T06:29:29.075Z,34.30
2022-10-11T06:32:00.876Z,33.10
2022-10-11T06:35:14.473Z,33.20
2022-10-11T06:37:41.529Z,28.70
2022-10-11T06:40:11.213Z,25.70
2022-10-11T06:43:00.730Z,21.80
2022-10-11T06:46:13.996Z,28.60
2022-10-11T06:53:59.228Z,21.40
2022-10-11T06:56:48.405Z,25.80
2022-10-11T06:59:38.412Z,20.20
2022-10-11T07:02:31.115Z,20.80
2022-10-11T07:05:06.465Z,31.50
2022-10-11T07:10:42.759Z,28.80
2022-10-11T07:13:16.973Z,22.00
2022-10-11T07:15:44.007Z,21.80
2022-10-11T07:18:10.559Z,19.70
2022-10-11T07:20:37.246Z,21.10
2022-10-11T07:23:24.474Z,30.30
2022-10-11T07:25:54.334Z,25.40
2022-10-11T07:28:23.306Z,23.20
2022-10-11T07:31:07.575Z,19.30
2022-10-11T07:33:37.074Z,21.50
2022-10-11T07:36:08.450Z,27.20
2022-10-11T07:48:52.506Z,20.40
2022-10-11T08:07:37.991Z,22.10
2022-10-11T08:08:59.297Z,27.90
2022-10-11T08:11:40.855Z,23.90
2022-10-11T09:28:34.221Z,22.90
2022-10-11T09:49:52.485Z,24.60
2022-10-11T10:23:50.898Z,37.40
2022-10-11T10:51:10.270Z,39.90
2022-10-11T10:54:39.756Z,41.80
2022-10-11T11:06:19.923Z,38.70
2022-10-11T11:18:25.380Z,27.60
2022-10-11T11:37:19.449Z,23.10
2022-10-11T11:58:09.321Z,21.80
2022-10-11T12:02:34.161Z,19.30
2022-10-11T12:17:27.205Z,23.20
2022-10-11T12:20:18.281Z,22.20
2022-10-11T12:22:53.840Z,19.40
2022-10-11T12:26:53.361Z,19.10
2022-10-11T12:29:50.726Z,20.00
2022-10-11T12:38:09.613Z,18.90
2022-10-11T12:41:41.620Z,17.20
2022-10-11T12:45:21.099Z,18.60
2022-10-11T12:48:52.996Z,23.10
2022-10-11T12:52:55.899Z,15.90
2022-10-11T12:56:28.048Z,18.70
2022-10-11T12:59:06.370Z,17.30
2022-10-11T13:02:49.625Z,16.70
2022-10-11T13:05:45.897Z,17.10
2022-10-11T13:08:49.639Z,19.50
2022-10-11T13:12:03.777Z,18.00
2022-10-11T13:19:01.293Z,16.30
2022-10-11T13:21:46.796Z,15.00
2022-10-11T13:25:54.863Z,18.20
2022-10-11T13:27:28.517Z,16.30
2022-10-11T13:37:48.089Z,16.00
2022-10-11T13:40:30.602Z,17.10
2022-10-11T13:44:07.587Z,21.60
2022-10-11T13:47:05.388Z,19.90
2022-10-11T13:49:40.596Z,17.40
2022-10-11T13:56:49.332Z,16.80
2022-10-11T13:59:31.276Z,17.50
2022-10-11T14:02:01.319Z,20.60
2022-10-11T14:04:41.951Z,21.90
2022-10-11T14:07:40.549Z,17.70
2022-10-11T14:10:24.890Z,22.50
2022-10-11T14:17:51.778Z,21.80
2022-10-11T14:20:54.608Z,18.50
2022-10-11T14:23:48.117Z,17.90
2022-10-11T14:26:22.672Z,19.70
2022-10-11T14:30:12.922Z,19.30
2022-10-11T14:32:12.789Z,22.70
2022-10-11T14:34:42.340Z,22.40
2022-10-11T14:37:27.407Z,25.40
2022-10-11T14:39:54.037Z,21.30
2022-10-11T14:42:23.841Z,20.70
2022-10-11T14:44:57.711Z,19.20
2022-10-11T14:47:42.963Z,20.20
2022-10-11T14:50:19.360Z,20.30
2022-10-11T14:52:53.755Z,21.70
2022-10-11T14:55:32.742Z,27.70
2022-10-11T14:58:16.962Z,26.50
2022-10-11T15:00:49.679Z,21.30
2022-10-11T15:03:24.839Z,19.50
2022-10-11T15:07:12.514Z,19.90
2022-10-11T15:10:34.719Z,20.90
2022-10-11T15:12:58.821Z,21.90
2022-10-11T15:16:08.428Z,22.50
2022-10-11T15:18:46.839Z,20.80
2022-10-11T15:21:38.845Z,23.30
2022-10-11T15:24:29.253Z,20.00
2022-10-11T15:27:25.039Z,23.40
2022-10-11T15:30:02.015Z,28.40
2022-10-11T15:32:46.573Z,24.00
2022-10-11T15:35:28.051Z,25.20
2022-10-11T15:38:56.877Z,25.10
2022-10-11T15:41:33.512Z,29.30
2022-10-11T15:44:09.913Z,25.70
2022-10-11T15:47:01.440Z,26.40
2022-10-11T15:49:36.965Z,28.40
2022-10-11T15:52:19.272Z,26.80
2022-10-11T15:55:07.134Z,29.70
2022-10-11T15:57:39.200Z,33.60
2022-10-11T16:00:17.538Z,28.00
2022-10-11T16:05:52.855Z,31.10
2022-10-11T16:08:25.363Z,32.20
2022-10-11T16:10:57.110Z,31.30
2022-10-11T16:20:35.125Z,33.10
2022-10-11T16:23:38.787Z,27.70
2022-10-11T16:26:12.755Z,35.90
2022-10-11T16:26:53.424Z,31.30
2022-10-11T18:09:13.828Z,31.30
2022-10-11T18:11:48.789Z,31.70
2022-10-11T18:15:07.783Z,36.70
2022-10-11T18:17:49.760Z,30.60
2022-10-11T18:20:30.479Z,31.40
2022-10-11T18:22:57.511Z,32.30
2022-10-11T18:31:59.390Z,31.60
2022-10-11T18:34:59.819Z,29.50
2022-10-11T18:39:02.781Z,26.90
2022-10-11T18:41:29.380Z,29.30
2022-10-11T18:41:39.410Z,33.50
2022-10-11T18:44:34.695Z,30.50
2022-10-11T18:47:13.753Z,28.00
2022-10-11T18:50:19.968Z,26.40
2022-10-11T18:52:53.259Z,28.00
2022-10-11T18:55:32.530Z,28.80
2022-10-11T18:58:11.318Z,31.50
2022-10-11T19:01:07.286Z,28.80
2022-10-11T19:03:37.955Z,29.20
2022-10-11T19:06:21.350Z,31.90
2022-10-11T19:09:14.089Z,36.00
2022-10-11T19:12:14.227Z,31.10
2022-10-11T19:14:46.650Z,33.50
2022-10-11T19:17:14.249Z,29.30
2022-10-11T19:19:59.240Z,30.20
2022-10-11T19:22:26.017Z,32.50
2022-10-11T19:24:52.972Z,39.60
2022-10-11T19:32:02.892Z,35.60
2022-10-11T19:34:41.032Z,30.80
2022-10-11T19:37:12.798Z,31.30
2022-10-11T19:39:40.117Z,30.80
2022-10-11T19:42:08.346Z,29.40
2022-10-11T19:44:39.594Z,31.80
2022-10-11T19:47:11.496Z,27.80
2022-10-11T19:49:37.997Z,26.40
2022-10-11T19:52:25.959Z,32.90
2022-10-11T19:55:04.983Z,30.20
2022-10-11T19:57:42.264Z,29.50
2022-10-11T20:01:22.530Z,33.30
2022-10-11T20:04:33.152Z,27.10
2022-10-11T20:08:28.415Z,33.10
2022-10-11T20:10:59.025Z,33.60
2022-10-11T20:13:47.459Z,31.10
2022-10-11T20:16:53.675Z,28.80
2022-10-11T20:20:50.979Z,27.70
2022-10-11T20:23:35.186Z,30.00
2022-10-11T20:26:31.974Z,29.70
2022-10-11T20:28:58.750Z,26.90
2022-10-11T20:31:46.247Z,24.60
2022-10-11T20:34:31.765Z,26.40
2022-10-11T20:41:47.276Z,28.30
2022-10-11T20:44:48.743Z,28.60
2022-10-11T20:47:26.340Z,26.10
2022-10-11T20:49:53.142Z,28.30
2022-10-11T20:53:25.413Z,31.20
2022-10-11T21:00:49.774Z,29.20
